createdAt,value
2022-08-20T00:00:19.870Z,18.30
2022-08-20T00:04:42.651Z,18.30
2022-08-20T00:09:05.529Z,18.30
2022-08-20T00:13:57.989Z,18.20
2022-08-20T00:18:22.290Z,18.20
2022-08-20T00:22:44.870Z,18.20
2022-08-20T00:27:07.589Z,18.10
2022-08-20T00:31:29.909Z,18.10
2022-08-20T00:35:57.169Z,18.10
2022-08-20T00:40:25.644Z,18.00
2022-08-20T00:44:48.269Z,18.00
2022-08-20T00:49:18.303Z,17.90
2022-08-20T00:53:41.409Z,17.90
2022-08-20T00:58:10.030Z,17.90
2022-08-20T01:02:33.329Z,17.90
2022-08-20T01:06:56.628Z,17.80
2022-08-20T01:11:22.715Z,17.80
2022-08-20T01:15:48.833Z,17.80
2022-08-20T01:20:38.329Z,17.80
2022-08-20T01:25:13.209Z,17.80
2022-08-20T01:29:40.989Z,17.70
2022-08-20T01:34:07.630Z,17.60
2022-08-20T01:38:31.252Z,17.60
2022-08-20T01:42:58.998Z,17.60
2022-08-20T01:47:31.641Z,17.60
2022-08-20T01:52:07.869Z,17.50
2022-08-20T01:56:32.537Z,17.60
2022-08-20T02:00:54.609Z,17.60
2022-08-20T02:05:18.595Z,17.50
2022-08-20T02:09:41.270Z,17.60
2022-08-20T02:14:07.769Z,17.50
2022-08-20T02:18:29.849Z,17.50
2022-08-20T02:22:56.841Z,17.50
2022-08-20T02:27:19.930Z,17.50
2022-08-20T02:32:23.454Z,17.50
2022-08-20T02:36:27.929Z,17.60
2022-08-20T02:40:50.929Z,17.50
2022-08-20T02:45:18.972Z,17.50
2022-08-20T02:49:41.229Z,17.50
2022-08-20T02:54:03.410Z,17.50
2022-08-20T02:58:25.769Z,17.50
2022-08-20T03:02:48.529Z,17.50
2022-08-20T03:07:11.250Z,17.40
2022-08-20T03:11:33.730Z,17.40
2022-08-20T03:16:01.489Z,17.30
2022-08-20T03:20:25.521Z,17.30
2022-08-20T03:24:48.170Z,17.20
2022-08-20T03:29:10.654Z,17.20
2022-08-20T03:33:33.221Z,17.10
2022-08-20T03:37:56.164Z,17.00
2022-08-20T03:42:18.289Z,16.90
2022-08-20T03:46:40.842Z,16.90
2022-08-20T03:51:03.190Z,16.90
2022-08-20T03:55:38.150Z,16.80
2022-08-20T04:00:00.531Z,16.90
2022-08-20T04:04:23.063Z,16.90
2022-08-20T04:08:45.419Z,16.90
2022-08-20T04:13:08.539Z,16.90
2022-08-20T04:17:32.538Z,16.80
2022-08-20T04:21:54.722Z,16.80
2022-08-20T04:26:17.370Z,16.80
2022-08-20T04:30:39.650Z,16.70
2022-08-20T04:35:08.559Z,16.70
2022-08-20T04:39:31.206Z,16.70
2022-08-20T04:43:55.400Z,16.70
2022-08-20T04:48:18.040Z,16.60
2022-08-20T04:52:40.838Z,16.60
2022-08-20T04:57:03.270Z,16.60
2022-08-20T05:01:27.286Z,16.60
2022-08-20T05:05:50.838Z,16.60
2022-08-20T05:10:17.318Z,16.60
2022-08-20T05:14:39.538Z,16.50
2022-08-20T05:19:02.118Z,16.50
2022-08-20T05:23:24.298Z,16.60
2022-08-20T05:27:47.887Z,16.60
2022-08-20T05:32:12.100Z,16.70
2022-08-20T05:36:35.199Z,16.70
2022-08-20T05:40:58.070Z,16.80
2022-08-20T05:45:21.914Z,16.80
2022-08-20T05:49:44.397Z,16.80
2022-08-20T05:54:07.797Z,16.80
2022-08-20T05:58:33.181Z,16.80
2022-08-20T06:03:14.799Z,16.80
2022-08-20T06:07:38.111Z,16.80
2022-08-20T06:12:04.564Z,16.80
2022-08-20T06:16:29.631Z,16.90
2022-08-20T06:20:52.439Z,16.80
2022-08-20T06:25:14.751Z,16.70
2022-08-20T06:29:37.278Z,16.70
2022-08-20T06:33:59.758Z,16.80
2022-08-20T06:38:22.358Z,16.80
2022-08-20T06:42:48.577Z,16.90
2022-08-20T06:47:14.238Z,16.90
2022-08-20T06:51:37.798Z,17.00
2022-08-20T06:56:02.411Z,17.20
2022-08-20T07:00:24.538Z,17.60
2022-08-20T07:04:46.698Z,18.00
2022-08-20T07:09:09.120Z,18.10
2022-08-20T07:13:32.330Z,18.20
2022-08-20T07:18:01.121Z,18.40
2022-08-20T07:22:25.054Z,18.60
2022-08-20T07:26:47.378Z,18.80
2022-08-20T07:31:28.041Z,19.00
2022-08-20T07:35:56.230Z,19.00
2022-08-20T07:40:26.094Z,19.10
2022-08-20T07:44:49.178Z,19.30
2022-08-20T07:49:11.418Z,19.50
2022-08-20T07:53:37.758Z,19.40
2022-08-20T07:58:13.021Z,19.70
2022-08-20T08:02:37.007Z,19.90
2022-08-20T08:07:00.880Z,19.90
2022-08-20T08:11:23.752Z,20.10
2022-08-20T08:15:49.494Z,20.40
2022-08-20T08:20:15.417Z,20.90
2022-08-20T08:24:37.619Z,21.30
2022-08-20T08:29:00.020Z,21.70
2022-08-20T08:33:33.818Z,22.20
2022-08-20T08:37:55.958Z,22.60
2022-08-20T08:42:45.758Z,22.80
2022-08-20T08:47:26.999Z,22.80
2022-08-20T08:51:59.560Z,22.80
2022-08-20T08:56:30.976Z,23.00
2022-08-20T09:00:57.470Z,23.40
2022-08-20T09:05:28.160Z,23.70
2022-08-20T09:09:51.099Z,23.60
2022-08-20T09:14:13.772Z,23.80
2022-08-20T09:18:36.178Z,24.30
2022-08-20T09:22:58.630Z,24.80
2022-08-20T09:27:20.918Z,25.10
2022-08-20T09:31:43.298Z,25.10
2022-08-20T09:36:29.292Z,25.20
2022-08-20T09:40:50.299Z,25.30
2022-08-20T09:45:14.298Z,25.20
2022-08-20T09:49:39.902Z,25.00
2022-08-20T09:54:02.758Z,25.00
2022-08-20T09:58:51.718Z,24.70
2022-08-20T10:03:13.901Z,24.40
2022-08-20T10:07:38.758Z,24.10
2022-08-20T10:12:01.240Z,23.90
2022-08-20T10:16:23.859Z,23.70
2022-08-20T10:20:46.518Z,23.50
2022-08-20T10:25:09.519Z,23.40
2022-08-20T10:29:32.679Z,23.50
2022-08-20T10:33:55.339Z,23.60
2022-08-20T10:38:18.278Z,23.60
2022-08-20T10:42:42.775Z,23.40
2022-08-20T10:47:31.339Z,23.50
2022-08-20T10:51:53.911Z,23.80
2022-08-20T10:56:16.480Z,24.00
2022-08-20T11:00:40.336Z,24.30
2022-08-20T11:05:02.535Z,24.50
2022-08-20T11:09:24.998Z,24.40
2022-08-20T11:13:47.598Z,24.20
2022-08-20T11:18:10.459Z,24.30
2022-08-20T11:22:32.958Z,24.40
2022-08-20T11:26:55.219Z,24.90
2022-08-20T11:31:17.312Z,25.50
2022-08-20T11:35:43.473Z,25.70
2022-08-20T11:40:13.061Z,25.50
2022-08-20T11:44:35.759Z,25.10
2022-08-20T11:48:58.478Z,24.80
2022-08-20T11:53:21.556Z,24.80
2022-08-20T11:57:48.269Z,24.70
2022-08-20T12:02:12.475Z,24.60
2022-08-20T12:06:35.290Z,24.60
2022-08-20T12:11:01.183Z,24.50
2022-08-20T12:15:23.290Z,24.20
2022-08-20T12:19:45.661Z,24.00
2022-08-20T12:24:07.944Z,23.70
2022-08-20T12:28:31.471Z,23.50
2022-08-20T12:32:53.730Z,23.40
2022-08-20T12:37:22.719Z,23.20
2022-08-20T12:41:45.400Z,23.10
2022-08-20T12:46:08.999Z,23.10
2022-08-20T12:50:32.133Z,23.00
2022-08-20T12:54:55.459Z,22.90
2022-08-20T12:59:17.899Z,22.70
2022-08-20T13:03:43.147Z,22.60
2022-08-20T13:08:13.018Z,22.50
2022-08-20T13:12:35.879Z,22.50
2022-08-20T13:17:00.983Z,22.40
2022-08-20T13:21:24.049Z,22.20
2022-08-20T13:25:46.551Z,22.10
2022-08-20T13:30:13.800Z,22.10
2022-08-20T13:34:35.959Z,22.20
2022-08-20T13:38:58.839Z,22.30
2022-08-20T13:43:21.319Z,22.30
2022-08-20T13:47:44.792Z,22.20
2022-08-20T13:52:07.199Z,22.00
2022-08-20T13:56:30.779Z,21.90
2022-08-20T14:00:53.096Z,21.70
2022-08-20T14:05:18.582Z,21.50
2022-08-20T14:09:44.539Z,21.40
2022-08-20T14:14:07.071Z,21.30
2022-08-20T14:18:30.999Z,21.30
2022-08-20T14:22:53.491Z,21.20
2022-08-20T14:27:19.063Z,21.10
2022-08-20T14:31:41.699Z,21.00
2022-08-20T14:36:05.345Z,21.00
2022-08-20T14:40:28.932Z,20.90
2022-08-20T14:44:51.613Z,20.90
2022-08-20T14:49:13.886Z,20.90
2022-08-20T14:53:40.173Z,20.80
2022-08-20T14:58:06.353Z,20.80
2022-08-20T15:02:28.807Z,20.80
2022-08-20T15:06:51.504Z,20.80
2022-08-20T15:11:17.232Z,20.80
2022-08-20T15:15:40.814Z,20.80
2022-08-20T15:20:20.483Z,20.90
2022-08-20T15:24:43.173Z,20.90
2022-08-20T15:29:05.772Z,21.00
2022-08-20T15:33:28.192Z,21.00
2022-08-20T15:37:51.894Z,21.10
2022-08-20T15:42:18.954Z,21.20
2022-08-20T15:46:41.473Z,21.30
2022-08-20T15:51:42.993Z,21.20
2022-08-20T15:56:28.935Z,21.30
2022-08-20T16:01:24.893Z,21.40
2022-08-20T16:06:17.757Z,21.50
2022-08-20T16:10:54.252Z,21.50
2022-08-20T16:15:33.164Z,21.50
2022-08-20T16:20:13.104Z,21.50
2022-08-20T16:24:35.155Z,21.50
2022-08-20T16:29:43.849Z,21.50
2022-08-20T16:34:59.353Z,21.50
2022-08-20T16:39:28.612Z,21.40
2022-08-20T16:43:58.311Z,21.30
2022-08-20T16:48:21.184Z,21.10
2022-08-20T16:52:46.872Z,20.90
2022-08-20T16:57:10.829Z,20.80
2022-08-20T17:01:35.551Z,20.60
2022-08-20T17:06:00.892Z,20.60
2022-08-20T17:10:33.016Z,20.40
2022-08-20T17:14:58.676Z,20.40
2022-08-20T17:19:32.978Z,20.30
2022-08-20T17:24:20.155Z,20.30
2022-08-20T17:28:51.835Z,20.20
2022-08-20T17:33:31.155Z,20.20
2022-08-20T17:37:54.202Z,20.10
2022-08-20T17:42:27.459Z,20.00
2022-08-20T17:46:51.954Z,19.90
2022-08-20T17:51:19.820Z,19.80
2022-08-20T17:55:43.026Z,19.70
2022-08-20T18:00:14.846Z,19.60
2022-08-20T18:04:37.377Z,19.50
2022-08-20T18:09:27.935Z,19.40
2022-08-20T18:14:15.230Z,19.30
2022-08-20T18:18:56.700Z,19.20
2022-08-20T18:23:35.965Z,19.20
2022-08-20T18:28:20.736Z,19.10
2022-08-20T18:32:43.168Z,19.10
2022-08-20T18:37:17.336Z,19.00
2022-08-20T18:41:56.217Z,18.90
2022-08-20T18:46:24.055Z,18.90
2022-08-20T18:50:53.655Z,18.90
2022-08-20T18:55:41.314Z,18.90
2022-08-20T19:00:17.446Z,18.90
2022-08-20T19:04:39.834Z,18.90
2022-08-20T19:09:38.795Z,18.90
2022-08-20T19:14:21.074Z,18.90
2022-08-20T19:18:56.618Z,18.90
2022-08-20T19:23:26.115Z,18.90
2022-08-20T19:27:49.115Z,18.90
2022-08-20T19:32:22.847Z,18.90
2022-08-20T19:36:45.914Z,18.80
2022-08-20T19:41:11.209Z,18.70
2022-08-20T19:46:02.068Z,18.70
2022-08-20T19:51:01.274Z,18.70
2022-08-20T19:55:37.228Z,18.60
2022-08-20T20:00:10.783Z,18.60
2022-08-20T20:04:54.842Z,18.60
2022-08-20T20:09:25.256Z,18.60
2022-08-20T20:13:47.614Z,18.50
2022-08-20T20:18:11.074Z,18.50
2022-08-20T20:22:47.956Z,18.50
2022-08-20T20:27:22.843Z,18.40
2022-08-20T20:32:22.220Z,18.30
2022-08-20T20:36:47.858Z,18.40
2022-08-20T20:41:26.035Z,18.40
2022-08-20T20:46:19.716Z,18.50
2022-08-20T20:50:44.165Z,18.50
2022-08-20T20:55:20.895Z,18.40
2022-08-20T20:59:44.067Z,18.50
2022-08-20T21:04:06.596Z,18.40
2022-08-20T21:08:29.057Z,18.40
2022-08-20T21:12:57.243Z,18.40
2022-08-20T21:17:23.213Z,18.40
2022-08-20T21:21:45.427Z,18.40
2022-08-20T21:26:08.656Z,18.40
2022-08-20T21:30:31.633Z,18.30
2022-08-20T21:34:53.834Z,18.40
2022-08-20T21:39:16.900Z,18.30
2022-08-20T21:43:39.117Z,18.30
2022-08-20T21:48:01.287Z,18.20
2022-08-20T21:52:24.806Z,18.20
2022-08-20T21:56:59.098Z,18.20
2022-08-20T22:01:21.671Z,18.20
2022-08-20T22:05:44.853Z,18.20
2022-08-20T22:10:07.754Z,18.10
2022-08-20T22:14:30.854Z,18.10
2022-08-20T22:18:53.375Z,18.10
2022-08-20T22:23:16.116Z,18.00
2022-08-20T22:27:38.822Z,18.00
2022-08-20T22:32:01.453Z,17.90
2022-08-20T22:36:25.733Z,17.90
2022-08-20T22:40:48.573Z,17.90
2022-08-20T22:45:10.778Z,17.90
2022-08-20T22:49:39.998Z,17.90
2022-08-20T22:54:06.335Z,17.90
2022-08-20T22:58:30.470Z,17.80
2022-08-20T23:02:57.549Z,17.80
2022-08-20T23:07:20.092Z,17.70
2022-08-20T23:11:42.873Z,17.70
2022-08-20T23:16:07.293Z,17.70
2022-08-20T23:20:29.918Z,17.70
2022-08-20T23:24:52.193Z,17.60
2022-08-20T23:29:15.573Z,17.60
2022-08-20T23:33:45.056Z,17.60
2022-08-20T23:38:07.898Z,17.50
2022-08-20T23:42:30.334Z,17.50
2022-08-20T23:46:54.680Z,17.50
2022-08-20T23:51:17.253Z,17.50
2022-08-20T23:55:39.495Z,17.60
